sensor_id;sensor_type;location;lat;lon;timestamp;pressure;altitude;pressure_sealevel;temperature;humidity
64679;BME280;51094;53.864;27.676;2023-01-25T00:00:42;101124.66;;;-2.86;69.42
64679;BME280;51094;53.864;27.676;2023-01-25T00:03:09;101145.88;;;-2.86;69.27
64679;BME280;51094;53.864;27.676;2023-01-25T00:05:36;101151.53;;;-3.07;69.35
64679;BME280;51094;53.864;27.676;2023-01-25T00:08:03;101150.56;;;-3.15;70.32
64679;BME280;51094;53.864;27.676;2023-01-25T00:10:30;101010.44;;;-3.86;70.88
64679;BME280;51094;53.864;27.676;2023-01-25T00:12:57;101162.97;;;-2.79;70.39
64679;BME280;51094;53.864;27.676;2023-01-25T00:15:23;101110.00;;;-3.04;69.92
64679;BME280;51094;53.864;27.676;2023-01-25T00:17:50;101155.34;;;-2.76;69.75
64679;BME280;51094;53.864;27.676;2023-01-25T00:20:17;101157.50;;;-3.05;69.25
64679;BME280;51094;53.864;27.676;2023-01-25T00:22:44;101160.56;;;-3.25;69.71
64679;BME280;51094;53.864;27.676;2023-01-25T00:25:11;101028.69;;;-4.10;69.61
64679;BME280;51094;53.864;27.676;2023-01-25T00:27:38;101131.22;;;-3.58;69.64
64679;BME280;51094;53.864;27.676;2023-01-25T00:30:06;101123.34;;;-3.73;69.14
64679;BME280;51094;53.864;27.676;2023-01-25T00:33:05;101154.72;;;-3.71;69.79
64679;BME280;51094;53.864;27.676;2023-01-25T00:35:31;101150.50;;;-3.71;70.60
64679;BME280;51094;53.864;27.676;2023-01-25T00:38:01;101134.41;;;-3.70;71.08
64679;BME280;51094;53.864;27.676;2023-01-25T00:40:28;101140.09;;;-3.84;70.62
64679;BME280;51094;53.864;27.676;2023-01-25T00:42:57;101125.59;;;-3.91;70.82
64679;BME280;51094;53.864;27.676;2023-01-25T00:45:26;101118.41;;;-4.14;70.75
64679;BME280;51094;53.864;27.676;2023-01-25T00:47:54;101093.22;;;-4.47;71.54
64679;BME280;51094;53.864;27.676;2023-01-25T00:50:22;101143.50;;;-4.29;71.75
64679;BME280;51094;53.864;27.676;2023-01-25T00:52:48;101083.88;;;-4.49;72.51
64679;BME280;51094;53.864;27.676;2023-01-25T00:55:15;101010.75;;;-4.67;71.97
64679;BME280;51094;53.864;27.676;2023-01-25T00:57:42;100976.63;;;-4.83;72.65
64679;BME280;51094;53.864;27.676;2023-01-25T01:00:09;100534.47;;;-7.27;71.17
64679;BME280;51094;53.864;27.676;2023-01-25T01:02:37;101123.97;;;-3.86;71.28
64679;BME280;51094;53.864;27.676;2023-01-25T01:05:04;101118.88;;;-3.86;71.47
64679;BME280;51094;53.864;27.676;2023-01-25T01:07:31;100967.19;;;-4.90;71.80
64679;BME280;51094;53.864;27.676;2023-01-25T01:09:58;101114.53;;;-3.93;71.60
64679;BME280;51094;53.864;27.676;2023-01-25T01:12:25;101122.41;;;-3.78;72.71
64679;BME280;51094;53.864;27.676;2023-01-25T01:14:52;101043.25;;;-4.01;72.08
64679;BME280;51094;53.864;27.676;2023-01-25T01:17:19;101095.81;;;-3.44;71.93
64679;BME280;51094;53.864;27.676;2023-01-25T01:19:46;101042.63;;;-3.86;71.63
64679;BME280;51094;53.864;27.676;2023-01-25T01:22:13;100991.94;;;-4.30;71.32
64679;BME280;51094;53.864;27.676;2023-01-25T01:24:40;100939.13;;;-4.51;71.88
64679;BME280;51094;53.864;27.676;2023-01-25T01:27:07;101092.31;;;-3.54;71.61
64679;BME280;51094;53.864;27.676;2023-01-25T01:29:34;101100.88;;;-3.49;71.00
64679;BME280;51094;53.864;27.676;2023-01-25T01:32:01;101032.00;;;-4.14;71.20
64679;BME280;51094;53.864;27.676;2023-01-25T01:34:28;101099.66;;;-3.71;71.26
64679;BME280;51094;53.864;27.676;2023-01-25T01:36:55;101104.81;;;-3.66;71.83
64679;BME280;51094;53.864;27.676;2023-01-25T01:39:22;101088.06;;;-3.55;72.28
64679;BME280;51094;53.864;27.676;2023-01-25T01:41:49;100861.84;;;-4.66;72.10
64679;BME280;51094;53.864;27.676;2023-01-25T01:44:19;101086.88;;;-3.19;72.42
64679;BME280;51094;53.864;27.676;2023-01-25T01:46:55;101127.00;;;-3.00;72.29
64679;BME280;51094;53.864;27.676;2023-01-25T01:49:28;101091.53;;;-2.88;71.70
64679;BME280;51094;53.864;27.676;2023-01-25T01:52:09;100748.38;;;-4.72;71.90
64679;BME280;51094;53.864;27.676;2023-01-25T01:54:42;101091.03;;;-2.59;71.17
64679;BME280;51094;53.864;27.676;2023-01-25T01:57:19;101003.72;;;-3.23;71.73
64679;BME280;51094;53.864;27.676;2023-01-25T01:59:51;101021.03;;;-2.93;70.95
64679;BME280;51094;53.864;27.676;2023-01-25T02:02:21;101088.53;;;-2.56;70.98
64679;BME280;51094;53.864;27.676;2023-01-25T02:04:50;101094.41;;;-2.63;71.02
64679;BME280;51094;53.864;27.676;2023-01-25T02:07:21;101161.50;;;-2.61;71.43
64679;BME280;51094;53.864;27.676;2023-01-25T02:09:51;100885.09;;;-3.83;70.55
64679;BME280;51094;53.864;27.676;2023-01-25T02:12:20;101085.94;;;-2.61;70.52
64679;BME280;51094;53.864;27.676;2023-01-25T02:14:50;100990.91;;;-3.29;70.21
64679;BME280;51094;53.864;27.676;2023-01-25T02:17:25;101115.63;;;-2.63;71.00
64679;BME280;51094;53.864;27.676;2023-01-25T02:25:10;101080.16;;;-2.46;70.33
64679;BME280;51094;53.864;27.676;2023-01-25T02:27:52;101086.78;;;-2.63;69.57
64679;BME280;51094;53.864;27.676;2023-01-25T02:30:20;101066.09;;;-2.88;70.52
64679;BME280;51094;53.864;27.676;2023-01-25T02:32:49;101089.34;;;-2.59;70.18
64679;BME280;51094;53.864;27.676;2023-01-25T02:35:22;100954.53;;;-3.22;70.09
64679;BME280;51094;53.864;27.676;2023-01-25T02:37:50;101075.06;;;-2.45;70.47
64679;BME280;51094;53.864;27.676;2023-01-25T02:40:17;101059.94;;;-2.31;70.38
64679;BME280;51094;53.864;27.676;2023-01-25T02:42:45;101060.81;;;-2.30;69.68
64679;BME280;51094;53.864;27.676;2023-01-25T02:45:16;101085.44;;;-2.31;70.03
64679;BME280;51094;53.864;27.676;2023-01-25T02:47:45;101056.44;;;-2.41;69.83
64679;BME280;51094;53.864;27.676;2023-01-25T02:50:11;101004.59;;;-2.44;69.78
64679;BME280;51094;53.864;27.676;2023-01-25T02:52:41;101055.00;;;-2.14;69.12
64679;BME280;51094;53.864;27.676;2023-01-25T02:55:08;100930.16;;;-3.05;69.46
64679;BME280;51094;53.864;27.676;2023-01-25T02:57:37;100921.75;;;-2.95;69.30
64679;BME280;51094;53.864;27.676;2023-01-25T03:00:05;101014.81;;;-2.43;69.38
64679;BME280;51094;53.864;27.676;2023-01-25T03:02:33;101003.63;;;-2.60;68.86
64679;BME280;51094;53.864;27.676;2023-01-25T03:05:00;101044.41;;;-2.52;69.50
64679;BME280;51094;53.864;27.676;2023-01-25T03:07:27;100948.72;;;-3.12;69.77
64679;BME280;51094;53.864;27.676;2023-01-25T03:09:54;101040.31;;;-2.40;70.25
64679;BME280;51094;53.864;27.676;2023-01-25T03:12:22;101042.16;;;-2.26;70.19
64679;BME280;51094;53.864;27.676;2023-01-25T03:14:48;101038.84;;;-2.18;70.08
64679;BME280;51094;53.864;27.676;2023-01-25T03:17:17;100961.09;;;-2.67;69.83
64679;BME280;51094;53.864;27.676;2023-01-25T03:19:44;101028.72;;;-2.07;69.30
64679;BME280;51094;53.864;27.676;2023-01-25T03:22:11;100991.13;;;-2.34;68.55
64679;BME280;51094;53.864;27.676;2023-01-25T03:24:39;100935.28;;;-2.99;68.45
64679;BME280;51094;53.864;27.676;2023-01-25T03:27:06;100921.59;;;-3.12;69.13
64679;BME280;51094;53.864;27.676;2023-01-25T03:29:45;100991.63;;;-2.69;69.83
64679;BME280;51094;53.864;27.676;2023-01-25T03:32:16;100789.94;;;-4.05;69.75
64679;BME280;51094;53.864;27.676;2023-01-25T03:34:43;100959.00;;;-3.05;70.10
64679;BME280;51094;53.864;27.676;2023-01-25T03:37:10;101031.00;;;-2.36;69.72
64679;BME280;51094;53.864;27.676;2023-01-25T03:39:39;100994.19;;;-2.67;69.88
64679;BME280;51094;53.864;27.676;2023-01-25T03:42:06;101027.69;;;-2.29;70.11
64679;BME280;51094;53.864;27.676;2023-01-25T03:44:33;101007.22;;;-2.37;69.57
64679;BME280;51094;53.864;27.676;2023-01-25T03:47:00;100919.13;;;-3.01;69.64
64679;BME280;51094;53.864;27.676;2023-01-25T03:49:28;100968.75;;;-2.65;70.20
64679;BME280;51094;53.864;27.676;2023-01-25T03:51:56;101019.13;;;-2.37;69.57
64679;BME280;51094;53.864;27.676;2023-01-25T03:54:32;101008.13;;;-2.33;69.98
64679;BME280;51094;53.864;27.676;2023-01-25T03:56:59;100849.34;;;-3.26;70.01
64679;BME280;51094;53.864;27.676;2023-01-25T03:59:27;100950.06;;;-2.67;70.48
64679;BME280;51094;53.864;27.676;2023-01-25T04:01:54;100855.56;;;-2.95;70.07
64679;BME280;51094;53.864;27.676;2023-01-25T04:04:21;100883.78;;;-2.74;69.68
64679;BME280;51094;53.864;27.676;2023-01-25T04:06:49;101005.94;;;-1.89;69.79
64679;BME280;51094;53.864;27.676;2023-01-25T04:09:16;101002.38;;;-2.08;68.48
64679;BME280;51094;53.864;27.676;2023-01-25T04:11:49;100870.78;;;-3.04;69.09
64679;BME280;51094;53.864;27.676;2023-01-25T04:14:16;100954.59;;;-2.35;69.67
64679;BME280;51094;53.864;27.676;2023-01-25T04:17:01;100916.22;;;-2.51;69.79
64679;BME280;51094;53.864;27.676;2023-01-25T04:19:41;100952.16;;;-2.22;69.84
64679;BME280;51094;53.864;27.676;2023-01-25T04:22:12;100984.53;;;-2.09;69.25
64679;BME280;51094;53.864;27.676;2023-01-25T04:24:42;100922.22;;;-2.46;69.86
64679;BME280;51094;53.864;27.676;2023-01-25T04:27:09;100966.69;;;-2.09;69.63
64679;BME280;51094;53.864;27.676;2023-01-25T04:29:48;100967.53;;;-2.10;69.75
64679;BME280;51094;53.864;27.676;2023-01-25T04:32:18;100744.03;;;-3.42;69.52
64679;BME280;51094;53.864;27.676;2023-01-25T04:34:45;100751.66;;;-3.42;68.89
64679;BME280;51094;53.864;27.676;2023-01-25T04:37:16;100835.16;;;-3.01;68.99
64679;BME280;51094;53.864;27.676;2023-01-25T04:39:50;100696.09;;;-3.93;69.35
64679;BME280;51094;53.864;27.676;2023-01-25T04:42:18;100935.66;;;-2.64;69.83
64679;BME280;51094;53.864;27.676;2023-01-25T04:44:48;100943.44;;;-2.47;69.94
64679;BME280;51094;53.864;27.676;2023-01-25T04:47:15;100726.81;;;-3.70;70.47
64679;BME280;51094;53.864;27.676;2023-01-25T04:49:42;100926.38;;;-2.56;70.04
64679;BME280;51094;53.864;27.676;2023-01-25T04:52:09;100928.25;;;-2.35;69.94
64679;BME280;51094;53.864;27.676;2023-01-25T04:54:36;100900.94;;;-2.53;70.08
64679;BME280;51094;53.864;27.676;2023-01-25T04:57:03;100939.38;;;-2.25;70.30
64679;BME280;51094;53.864;27.676;2023-01-25T04:59:31;100951.25;;;-2.30;69.89
64679;BME280;51094;53.864;27.676;2023-01-25T05:01:58;100822.38;;;-3.09;69.87
64679;BME280;51094;53.864;27.676;2023-01-25T05:04:26;100826.31;;;-3.37;69.32
64679;BME280;51094;53.864;27.676;2023-01-25T05:06:53;100715.44;;;-4.04;70.34
64679;BME280;51094;53.864;27.676;2023-01-25T05:09:20;100770.09;;;-3.64;71.06
64679;BME280;51094;53.864;27.676;2023-01-25T05:11:47;100891.41;;;-2.77;70.77
64679;BME280;51094;53.864;27.676;2023-01-25T05:14:20;100891.47;;;-2.71;70.57
64679;BME280;51094;53.864;27.676;2023-01-25T05:16:48;100933.13;;;-2.64;69.82
64679;BME280;51094;53.864;27.676;2023-01-25T05:19:16;100924.59;;;-2.67;70.23
64679;BME280;51094;53.864;27.676;2023-01-25T05:21:54;100927.19;;;-2.58;70.83
64679;BME280;51094;53.864;27.676;2023-01-25T05:24:40;100858.06;;;-3.01;70.87
64679;BME280;51094;53.864;27.676;2023-01-25T05:27:12;100900.66;;;-2.85;70.42
64679;BME280;51094;53.864;27.676;2023-01-25T05:30:06;100932.22;;;-2.69;70.54
64679;BME280;51094;53.864;27.676;2023-01-25T05:32:42;100932.91;;;-2.82;70.49
64679;BME280;51094;53.864;27.676;2023-01-25T05:35:08;100805.81;;;-3.55;71.09
64679;BME280;51094;53.864;27.676;2023-01-25T05:37:37;100884.28;;;-3.11;70.97
64679;BME280;51094;53.864;27.676;2023-01-25T05:40:07;100941.34;;;-2.88;70.80
64679;BME280;51094;53.864;27.676;2023-01-25T05:42:37;100786.50;;;-4.09;70.90
64679;BME280;51094;53.864;27.676;2023-01-25T05:45:09;100949.69;;;-3.04;71.65
64679;BME280;51094;53.864;27.676;2023-01-25T05:47:38;100848.13;;;-3.60;72.05
64679;BME280;51094;53.864;27.676;2023-01-25T05:50:05;100595.75;;;-5.01;72.25
64679;BME280;51094;53.864;27.676;2023-01-25T05:52:49;100945.50;;;-2.96;72.14
64679;BME280;51094;53.864;27.676;2023-01-25T05:55:16;100859.75;;;-3.77;72.13
64679;BME280;51094;53.864;27.676;2023-01-25T05:57:43;100956.59;;;-2.89;72.16
64679;BME280;51094;53.864;27.676;2023-01-25T06:00:10;100905.66;;;-2.94;72.84
64679;BME280;51094;53.864;27.676;2023-01-25T06:02:40;100939.94;;;-2.60;72.36
64679;BME280;51094;53.864;27.676;2023-01-25T06:05:12;100940.78;;;-2.61;71.35
64679;BME280;51094;53.864;27.676;2023-01-25T06:07:39;100941.53;;;-2.71;71.89
64679;BME280;51094;53.864;27.676;2023-01-25T06:10:07;100872.34;;;-3.15;71.90
64679;BME280;51094;53.864;27.676;2023-01-25T06:12:34;100896.25;;;-2.99;72.12
64679;BME280;51094;53.864;27.676;2023-01-25T06:15:02;100785.25;;;-3.73;72.23
64679;BME280;51094;53.864;27.676;2023-01-25T06:17:29;100914.03;;;-3.06;72.03
64679;BME280;51094;53.864;27.676;2023-01-25T06:20:15;100948.94;;;-2.91;72.01
64679;BME280;51094;53.864;27.676;2023-01-25T06:23:17;100941.09;;;-3.12;73.05
64679;BME280;51094;53.864;27.676;2023-01-25T06:25:44;100784.75;;;-4.14;73.09
64679;BME280;51094;53.864;27.676;2023-01-25T06:28:10;100951.03;;;-3.30;73.61
64679;BME280;51094;53.864;27.676;2023-01-25T06:30:37;100743.59;;;-4.52;73.74
64679;BME280;51094;53.864;27.676;2023-01-25T06:33:04;100850.31;;;-3.86;74.20
64679;BME280;51094;53.864;27.676;2023-01-25T06:35:32;100906.66;;;-3.55;73.91
64679;BME280;51094;53.864;27.676;2023-01-25T06:37:59;100877.56;;;-3.76;74.20
64679;BME280;51094;53.864;27.676;2023-01-25T06:40:27;100828.13;;;-4.00;74.09
64679;BME280;51094;53.864;27.676;2023-01-25T06:42:54;100576.50;;;-5.47;74.21
64679;BME280;51094;53.864;27.676;2023-01-25T06:45:21;100947.72;;;-3.25;74.84
64679;BME280;51094;53.864;27.676;2023-01-25T06:47:48;100946.16;;;-3.14;74.97
64679;BME280;51094;53.864;27.676;2023-01-25T06:50:15;100957.28;;;-3.07;74.39
64679;BME280;51094;53.864;27.676;2023-01-25T06:52:50;100860.91;;;-3.54;74.05
64679;BME280;51094;53.864;27.676;2023-01-25T06:55:17;100661.13;;;-4.83;74.04
64679;BME280;51094;53.864;27.676;2023-01-25T06:57:44;100817.97;;;-3.99;74.58
64679;BME280;51094;53.864;27.676;2023-01-25T07:00:11;100857.22;;;-3.76;74.12
64679;BME280;51094;53.864;27.676;2023-01-25T07:02:38;100834.13;;;-3.95;74.75
64679;BME280;51094;53.864;27.676;2023-01-25T07:05:05;100945.28;;;-3.17;74.71
64679;BME280;51094;53.864;27.676;2023-01-25T07:07:33;100736.22;;;-4.36;74.40
64679;BME280;51094;53.864;27.676;2023-01-25T07:10:00;100945.34;;;-3.11;74.57
64679;BME280;51094;53.864;27.676;2023-01-25T07:12:28;100863.50;;;-3.51;74.71
64679;BME280;51094;53.864;27.676;2023-01-25T07:14:55;100772.97;;;-4.08;74.06
64679;BME280;51094;53.864;27.676;2023-01-25T07:17:22;100777.41;;;-3.93;74.59
64679;BME280;51094;53.864;27.676;2023-01-25T07:19:49;100880.75;;;-3.24;74.57
64679;BME280;51094;53.864;27.676;2023-01-25T07:22:16;100896.16;;;-3.10;73.92
64679;BME280;51094;53.864;27.676;2023-01-25T07:24:43;100888.94;;;-3.46;73.63
64679;BME280;51094;53.864;27.676;2023-01-25T07:27:16;100927.50;;;-3.13;73.85
64679;BME280;51094;53.864;27.676;2023-01-25T07:29:46;100896.72;;;-3.36;74.39
64679;BME280;51094;53.864;27.676;2023-01-25T07:32:13;100931.84;;;-3.03;74.84
64679;BME280;51094;53.864;27.676;2023-01-25T07:34:40;100926.75;;;-3.03;73.85
64679;BME280;51094;53.864;27.676;2023-01-25T07:37:07;100125.94;;;-7.81;74.21
64679;BME280;51094;53.864;27.676;2023-01-25T07:39:35;100829.69;;;-3.39;74.57
64679;BME280;51094;53.864;27.676;2023-01-25T07:42:02;100785.38;;;-3.61;73.89
64679;BME280;51094;53.864;27.676;2023-01-25T07:44:31;100629.41;;;-4.49;74.00
64679;BME280;51094;53.864;27.676;2023-01-25T07:47:07;100881.06;;;-2.92;74.34
64679;BME280;51094;53.864;27.676;2023-01-25T07:49:34;100468.44;;;-5.41;73.21
64679;BME280;51094;53.864;27.676;2023-01-25T07:52:02;100887.00;;;-2.91;73.25
64679;BME280;51094;53.864;27.676;2023-01-25T07:54:29;100859.72;;;-3.08;73.82
64679;BME280;51094;53.864;27.676;2023-01-25T07:56:55;100894.78;;;-2.78;73.37
64679;BME280;51094;53.864;27.676;2023-01-25T07:59:23;100867.38;;;-3.03;73.46
64679;BME280;51094;53.864;27.676;2023-01-25T08:01:50;100689.97;;;-4.09;73.89
64679;BME280;51094;53.864;27.676;2023-01-25T08:04:17;100858.13;;;-2.95;73.82
64679;BME280;51094;53.864;27.676;2023-01-25T08:06:44;100902.63;;;-2.53;73.97
64679;BME280;51094;53.864;27.676;2023-01-25T08:09:15;100819.91;;;-2.98;74.26
64679;BME280;51094;53.864;27.676;2023-01-25T08:11:45;100798.63;;;-3.09;72.87
64679;BME280;51094;53.864;27.676;2023-01-25T08:14:12;100813.94;;;-3.00;72.86
64679;BME280;51094;53.864;27.676;2023-01-25T08:16:39;100902.59;;;-2.56;73.04
64679;BME280;51094;53.864;27.676;2023-01-25T08:19:08;100808.03;;;-2.99;73.51
64679;BME280;51094;53.864;27.676;2023-01-25T08:21:36;100844.84;;;-2.62;73.37
64679;BME280;51094;53.864;27.676;2023-01-25T08:24:05;100885.88;;;-2.27;73.33
64679;BME280;51094;53.864;27.676;2023-01-25T08:26:34;100848.34;;;-2.45;72.66
64679;BME280;51094;53.864;27.676;2023-01-25T08:29:02;100810.00;;;-2.67;72.90
64679;BME280;51094;53.864;27.676;2023-01-25T08:31:31;100799.81;;;-2.67;71.87
64679;BME280;51094;53.864;27.676;2023-01-25T08:33:59;100858.50;;;-2.51;71.97
64679;BME280;51094;53.864;27.676;2023-01-25T08:36:26;100824.31;;;-2.82;72.71
64679;BME280;51094;53.864;27.676;2023-01-25T08:38:58;100878.22;;;-2.27;72.51
64679;BME280;51094;53.864;27.676;2023-01-25T08:41:27;100812.66;;;-2.49;72.64
64679;BME280;51094;53.864;27.676;2023-01-25T08:43:54;100869.78;;;-2.18;72.56
64679;BME280;51094;53.864;27.676;2023-01-25T08:46:23;100834.88;;;-2.31;72.55
64679;BME280;51094;53.864;27.676;2023-01-25T08:48:54;100884.28;;;-2.05;72.31
64679;BME280;51094;53.864;27.676;2023-01-25T08:51:22;100707.00;;;-3.11;71.17
64679;BME280;51094;53.864;27.676;2023-01-25T08:53:49;100749.47;;;-3.02;71.92
64679;BME280;51094;53.864;27.676;2023-01-25T08:56:17;100862.94;;;-2.27;71.56
64679;BME280;51094;53.864;27.676;2023-01-25T08:58:46;100729.56;;;-3.49;72.18
64679;BME280;51094;53.864;27.676;2023-01-25T09:01:16;100862.00;;;-2.37;72.42
64679;BME280;51094;53.864;27.676;2023-01-25T09:03:49;100857.81;;;-2.31;72.56
64679;BME280;51094;53.864;27.676;2023-01-25T09:06:17;100859.50;;;-2.32;72.64
64679;BME280;51094;53.864;27.676;2023-01-25T09:08:45;100792.22;;;-2.57;72.26
64679;BME280;51094;53.864;27.676;2023-01-25T09:11:18;100819.53;;;-2.39;71.89
64679;BME280;51094;53.864;27.676;2023-01-25T09:13:46;100855.38;;;-2.10;71.85
64679;BME280;51094;53.864;27.676;2023-01-25T09:16:18;100835.75;;;-2.28;71.84
64679;BME280;51094;53.864;27.676;2023-01-25T09:18:48;100730.16;;;-2.76;71.85
64679;BME280;51094;53.864;27.676;2023-01-25T09:21:17;100845.22;;;-2.03;71.81
64679;BME280;51094;53.864;27.676;2023-01-25T09:23:46;100718.28;;;-2.77;71.89
64679;BME280;51094;53.864;27.676;2023-01-25T09:26:33;100864.81;;;-1.98;71.23
64679;BME280;51094;53.864;27.676;2023-01-25T09:29:00;100849.44;;;-2.11;71.29
64679;BME280;51094;53.864;27.676;2023-01-25T09:31:27;100847.72;;;-2.18;72.57
64679;BME280;51094;53.864;27.676;2023-01-25T09:33:58;100859.66;;;-2.06;72.37
64679;BME280;51094;53.864;27.676;2023-01-25T09:36:25;100613.59;;;-3.27;71.84
64679;BME280;51094;53.864;27.676;2023-01-25T09:38:54;100839.44;;;-1.77;72.58
64679;BME280;51094;53.864;27.676;2023-01-25T09:46:46;100739.69;;;-2.43;71.31
64679;BME280;51094;53.864;27.676;2023-01-25T09:54:38;100812.28;;;-1.54;70.01
64679;BME280;51094;53.864;27.676;2023-01-25T09:57:39;100785.06;;;-1.62;70.70
64679;BME280;51094;53.864;27.676;2023-01-25T10:00:15;100811.50;;;-1.28;69.30
64679;BME280;51094;53.864;27.676;2023-01-25T10:05:21;100694.88;;;-1.90;70.74
64679;BME280;51094;53.864;27.676;2023-01-25T10:07:51;100801.28;;;-1.24;69.68
64679;BME280;51094;53.864;27.676;2023-01-25T10:10:26;100803.88;;;-1.16;69.82
64679;BME280;51094;53.864;27.676;2023-01-25T10:12:55;100648.94;;;-2.09;69.52
64679;BME280;51094;53.864;27.676;2023-01-25T10:15:28;100788.53;;;-1.22;69.58
64679;BME280;51094;53.864;27.676;2023-01-25T10:18:12;100782.56;;;-1.47;69.72
64679;BME280;51094;53.864;27.676;2023-01-25T10:20:47;100781.72;;;-1.39;70.33
64679;BME280;51094;53.864;27.676;2023-01-25T10:25:59;100769.00;;;-1.07;69.99
64679;BME280;51094;53.864;27.676;2023-01-25T10:31:41;100761.34;;;-1.05;68.80
64679;BME280;51094;53.864;27.676;2023-01-25T10:36:46;100657.53;;;-1.61;69.18
64679;BME280;51094;53.864;27.676;2023-01-25T10:39:15;100749.44;;;-0.91;69.49
64679;BME280;51094;53.864;27.676;2023-01-25T10:41:47;100565.66;;;-2.16;69.56
64679;BME280;51094;53.864;27.676;2023-01-25T10:44:16;100671.13;;;-1.28;69.00
64679;BME280;51094;53.864;27.676;2023-01-25T10:47:00;100728.16;;;-1.01;69.68
64679;BME280;51094;53.864;27.676;2023-01-25T10:49:42;100745.19;;;-0.89;69.12
64679;BME280;51094;53.864;27.676;2023-01-25T10:52:14;100591.22;;;-1.75;68.73
64679;BME280;51094;53.864;27.676;2023-01-25T10:54:42;100673.69;;;-1.50;69.17
64679;BME280;51094;53.864;27.676;2023-01-25T10:57:13;100439.84;;;-3.00;69.37
64679;BME280;51094;53.864;27.676;2023-01-25T10:59:50;100626.91;;;-1.65;69.86
64679;BME280;51094;53.864;27.676;2023-01-25T11:07:45;100713.66;;;-1.23;70.12
64679;BME280;51094;53.864;27.676;2023-01-25T11:10:35;100665.19;;;-1.38;70.15
64679;BME280;51094;53.864;27.676;2023-01-25T11:15:40;100719.63;;;-0.96;70.11
64679;BME280;51094;53.864;27.676;2023-01-25T11:18:17;100753.69;;;-1.07;70.05
64679;BME280;51094;53.864;27.676;2023-01-25T11:20:46;100700.09;;;-1.34;70.14
64679;BME280;51094;53.864;27.676;2023-01-25T11:23:24;100706.88;;;-1.13;70.82
64679;BME280;51094;53.864;27.676;2023-01-25T11:25:52;100586.97;;;-1.82;70.56
64679;BME280;51094;53.864;27.676;2023-01-25T11:28:21;100666.88;;;-1.22;70.06
64679;BME280;51094;53.864;27.676;2023-01-25T11:30:51;100537.66;;;-2.20;70.71
64679;BME280;51094;53.864;27.676;2023-01-25T11:33:20;100575.06;;;-1.69;70.47
64679;BME280;51094;53.864;27.676;2023-01-25T11:35:51;100693.25;;;-1.18;70.30
64679;BME280;51094;53.864;27.676;2023-01-25T11:38:24;100689.03;;;-1.30;71.60
64679;BME280;51094;53.864;27.676;2023-01-25T11:41:09;100717.09;;;-1.04;71.76
64679;BME280;51094;53.864;27.676;2023-01-25T12:05:52;100666.00;;;-0.89;71.36
64679;BME280;51094;53.864;27.676;2023-01-25T12:08:35;100414.50;;;-2.36;70.61
64679;BME280;51094;53.864;27.676;2023-01-25T12:13:58;100326.22;;;-2.71;70.83
64679;BME280;51094;53.864;27.676;2023-01-25T12:32:51;100632.84;;;-0.99;71.58
64679;BME280;51094;53.864;27.676;2023-01-25T12:35:40;100620.91;;;-1.04;71.82
64679;BME280;51094;53.864;27.676;2023-01-25T12:38:24;100548.69;;;-1.68;71.95
64679;BME280;51094;53.864;27.676;2023-01-25T12:40:55;100551.19;;;-1.27;72.16
64679;BME280;51094;53.864;27.676;2023-01-25T12:43:29;100538.44;;;-1.28;71.84
64679;BME280;51094;53.864;27.676;2023-01-25T12:46:00;100618.34;;;-0.90;71.56
64679;BME280;51094;53.864;27.676;2023-01-25T12:48:34;100452.69;;;-2.01;71.76
64679;BME280;51094;53.864;27.676;2023-01-25T12:51:03;100543.59;;;-1.59;72.16
64679;BME280;51094;53.864;27.676;2023-01-25T12:53:38;100536.78;;;-1.71;72.74
64679;BME280;51094;53.864;27.676;2023-01-25T12:56:20;100630.28;;;-1.07;72.92
64679;BME280;51094;53.864;27.676;2023-01-25T12:58:52;100629.44;;;-1.14;72.78
64679;BME280;51094;53.864;27.676;2023-01-25T13:01:32;100611.56;;;-0.97;72.58
64679;BME280;51094;53.864;27.676;2023-01-25T13:06:50;100535.94;;;-1.41;72.48
64679;BME280;51094;53.864;27.676;2023-01-25T13:09:58;100448.38;;;-1.64;72.06
64679;BME280;51094;53.864;27.676;2023-01-25T13:12:27;100597.88;;;-0.81;72.33
64679;BME280;51094;53.864;27.676;2023-01-25T13:14:54;100495.13;;;-1.57;72.27
64679;BME280;51094;53.864;27.676;2023-01-25T13:17:28;100513.81;;;-1.49;72.67
64679;BME280;51094;53.864;27.676;2023-01-25T13:28:57;100583.50;;;-1.12;73.57
64679;BME280;51094;53.864;27.676;2023-01-25T13:37:24;100572.44;;;-1.23;73.71
64679;BME280;51094;53.864;27.676;2023-01-25T13:40:03;100384.78;;;-2.19;73.93
64679;BME280;51094;53.864;27.676;2023-01-25T13:42:33;100588.59;;;-1.15;73.52
64679;BME280;51094;53.864;27.676;2023-01-25T13:47:42;100470.53;;;-1.98;74.25
64679;BME280;51094;53.864;27.676;2023-01-25T13:50:20;100263.41;;;-2.97;74.00
64679;BME280;51094;53.864;27.676;2023-01-25T13:55:22;100554.53;;;-1.02;74.86
64679;BME280;51094;53.864;27.676;2023-01-25T13:57:49;100479.78;;;-1.36;74.29
64679;BME280;51094;53.864;27.676;2023-01-25T14:00:17;100552.81;;;-0.94;74.53
64679;BME280;51094;53.864;27.676;2023-01-25T14:02:51;100540.13;;;-1.20;74.79
64679;BME280;51094;53.864;27.676;2023-01-25T14:05:22;100308.38;;;-2.49;74.23
64679;BME280;51094;53.864;27.676;2023-01-25T14:07:52;100541.78;;;-0.99;74.50
64679;BME280;51094;53.864;27.676;2023-01-25T14:10:25;100342.31;;;-2.33;74.37
64679;BME280;51094;53.864;27.676;2023-01-25T14:12:58;100498.44;;;-1.25;74.50
64679;BME280;51094;53.864;27.676;2023-01-25T14:15:30;100422.97;;;-2.02;74.38
64679;BME280;51094;53.864;27.676;2023-01-25T14:20:30;100487.44;;;-1.30;74.71
64679;BME280;51094;53.864;27.676;2023-01-25T14:22:57;100481.50;;;-1.43;75.01
64679;BME280;51094;53.864;27.676;2023-01-25T14:25:25;100168.44;;;-3.13;74.68
64679;BME280;51094;53.864;27.676;2023-01-25T14:27:58;100541.75;;;-0.94;74.38
64679;BME280;51094;53.864;27.676;2023-01-25T14:30:28;100479.72;;;-1.22;74.51
64679;BME280;51094;53.864;27.676;2023-01-25T14:32:58;100411.03;;;-1.74;74.62
64679;BME280;51094;53.864;27.676;2023-01-25T14:38:35;100519.69;;;-1.21;75.08
64679;BME280;51094;53.864;27.676;2023-01-25T14:43:56;100516.28;;;-1.14;75.79